Time;durP1;ratioP1;P1;durP2;ratioP2;P2;SDS_P1;SDS_P2;PMS_P1;PMS_P2;Temp;Humidity;BMP_temperature;BMP_pressure;BME280_temperature;BME280_humidity;BME280_pressure;Samples;Min_cycle;Max_cycle;Signal;HPM_P1;HPM_P2
2022/03/28 00:02:04;;;;;;;9.23;5.57;;;6.20;99.90;;;;;;5093478;28;20047;-78
2022/03/28 00:04:29;;;;;;;10.43;5.93;;;6.20;99.90;;;;;;5081993;28;20036;-77
2022/03/28 00:06:55;;;;;;;5.65;5.05;;;6.20;99.90;;;;;;5073285;28;20471;-78
2022/03/28 00:09:20;;;;;;;8.55;5.68;;;6.20;99.90;;;;;;5072993;28;20044;-78
2022/03/28 00:11:46;;;;;;;7.63;5.55;;;6.20;99.90;;;;;;5073699;28;20101;-77
2022/03/28 00:14:12;;;;;;;11.45;4.78;;;6.20;99.90;;;;;;5073436;28;20102;-76
2022/03/28 00:16:38;;;;;;;7.35;5.78;;;6.20;99.90;;;;;;5072740;28;20044;-78
2022/03/28 00:19:03;;;;;;;6.28;4.60;;;6.10;99.90;;;;;;5091689;28;20040;-78
2022/03/28 00:21:29;;;;;;;9.48;5.68;;;6.10;99.90;;;;;;5095518;28;20048;-77
2022/03/28 00:23:54;;;;;;;7.45;4.97;;;6.10;99.90;;;;;;5076943;28;20047;-78
2022/03/28 00:26:20;;;;;;;7.72;5.80;;;6.10;99.90;;;;;;5095985;28;20443;-77
2022/03/28 00:28:46;;;;;;;9.32;5.70;;;6.10;99.90;;;;;;5096121;28;20048;-78
2022/03/28 00:31:11;;;;;;;7.88;5.53;;;6.00;99.90;;;;;;5095056;28;20052;-77
2022/03/28 00:33:37;;;;;;;8.57;5.97;;;6.00;99.90;;;;;;5096109;28;20117;-77
2022/03/28 00:36:04;;;;;;;9.20;4.95;;;6.00;99.90;;;;;;5096027;28;20052;-77
2022/03/28 00:38:30;;;;;;;6.60;5.22;;;6.00;99.90;;;;;;5097604;28;20043;-78
2022/03/28 00:40:58;;;;;;;8.98;5.15;;;6.00;99.90;;;;;;5105657;28;20052;-77
2022/03/28 00:43:27;;;;;;;7.70;5.38;;;6.00;99.90;;;;;;5085030;28;20126;-77
2022/03/28 00:45:52;;;;;;;9.63;5.75;;;5.90;99.90;;;;;;5115191;28;20047;-77
2022/03/28 00:48:21;;;;;;;11.13;5.60;;;6.00;99.90;;;;;;5107039;28;20048;-76
2022/03/28 00:50:47;;;;;;;8.32;5.57;;;6.00;99.90;;;;;;5091137;28;20478;-77
2022/03/28 00:53:14;;;;;;;8.77;5.13;;;6.00;99.90;;;;;;5088163;28;20051;-78
2022/03/28 00:55:40;;;;;;;7.72;5.07;;;6.00;99.90;;;;;;5095440;28;20115;-77
2022/03/28 00:58:05;;;;;;;6.25;5.40;;;6.00;99.90;;;;;;5095066;28;20051;-77
2022/03/28 01:00:32;;;;;;;6.53;5.05;;;6.00;99.90;;;;;;5106984;28;20394;-77
2022/03/28 01:02:57;;;;;;;6.65;5.47;;;6.00;99.90;;;;;;5115373;28;20535;-77
2022/03/28 01:05:31;;;;;;;6.78;5.38;;;6.00;99.90;;;;;;5115107;28;20126;-77
2022/03/28 01:07:56;;;;;;;10.90;6.43;;;6.00;99.90;;;;;;5097038;28;20048;-78
2022/03/28 01:10:23;;;;;;;8.32;5.97;;;6.00;99.90;;;;;;5115524;28;20390;-78
2022/03/28 01:12:49;;;;;;;7.38;5.72;;;6.00;99.90;;;;;;5114852;28;20039;-78
2022/03/28 01:15:15;;;;;;;13.02;6.05;;;6.10;99.90;;;;;;5115422;28;20105;-77
2022/03/28 01:20:26;;;;;;;12.35;7.45;;;6.00;99.90;;;;;;5102460;28;20060;-77
2022/03/28 01:22:52;;;;;;;8.68;5.55;;;6.00;99.90;;;;;;5095891;28;20063;-77
2022/03/28 01:25:23;;;;;;;6.53;5.43;;;6.00;99.90;;;;;;5085344;28;20044;-78
2022/03/28 01:27:50;;;;;;;7.47;5.78;;;6.00;99.90;;;;;;5076059;28;20401;-77
2022/03/28 01:30:16;;;;;;;8.80;6.28;;;6.00;99.90;;;;;;5109422;28;20054;-78
2022/03/28 01:32:46;;;;;;;8.60;6.85;;;6.00;99.90;;;;;;5096653;28;20043;-78
2022/03/28 01:35:12;;;;;;;12.65;8.00;;;5.90;99.90;;;;;;5100708;28;20069;-77
2022/03/28 01:37:37;;;;;;;9.18;6.70;;;5.90;99.90;;;;;;5094867;28;20044;-78
2022/03/28 01:40:04;;;;;;;7.30;6.50;;;5.90;99.90;;;;;;5076116;28;20051;-78
2022/03/28 01:42:30;;;;;;;10.32;7.38;;;5.90;99.90;;;;;;5075753;28;20052;-77
2022/03/28 01:44:57;;;;;;;9.07;7.30;;;5.90;99.90;;;;;;5094136;28;20039;-77
2022/03/28 01:47:26;;;;;;;10.70;8.40;;;5.90;99.90;;;;;;5093636;28;20052;-77
2022/03/28 01:49:51;;;;;;;15.43;8.40;;;6.00;99.90;;;;;;5075440;28;20502;-77
2022/03/28 01:52:18;;;;;;;10.88;8.55;;;6.00;99.90;;;;;;5076419;28;20058;-78
2022/03/28 01:54:44;;;;;;;15.35;8.43;;;6.00;99.90;;;;;;5075954;28;20051;-77
2022/03/28 01:57:10;;;;;;;12.40;8.40;;;6.00;99.90;;;;;;5104151;28;20123;-77
2022/03/28 01:59:35;;;;;;;10.77;7.82;;;6.00;99.90;;;;;;5097729;28;20122;-77
2022/03/28 02:02:01;;;;;;;8.70;7.10;;;6.00;99.90;;;;;;5087681;28;20558;-77
2022/03/28 02:04:26;;;;;;;9.93;7.43;;;6.00;99.90;;;;;;5081537;28;20067;-77
2022/03/28 02:06:52;;;;;;;9.73;7.05;;;6.00;99.90;;;;;;5100653;28;20032;-77
2022/03/28 02:09:17;;;;;;;13.40;7.20;;;6.00;99.90;;;;;;5075386;28;20490;-78
2022/03/28 02:11:43;;;;;;;8.23;6.75;;;6.00;99.90;;;;;;5085973;28;20538;-77
2022/03/28 02:14:09;;;;;;;13.55;6.97;;;5.90;99.90;;;;;;5114031;28;20039;-77
2022/03/28 02:16:34;;;;;;;9.50;6.43;;;5.90;99.90;;;;;;5095167;28;20054;-78
2022/03/28 02:19:00;;;;;;;8.65;6.82;;;5.90;99.90;;;;;;5113761;28;20065;-78
2022/03/28 02:21:25;;;;;;;10.63;6.20;;;5.90;99.90;;;;;;5095777;28;20072;-77
2022/03/28 02:23:51;;;;;;;8.40;5.93;;;5.90;99.90;;;;;;5094544;28;20446;-78
2022/03/28 02:26:16;;;;;;;7.00;5.82;;;5.90;99.90;;;;;;5095717;28;20405;-78
2022/03/28 02:28:42;;;;;;;8.77;6.18;;;5.90;99.90;;;;;;5113939;28;20350;-78
2022/03/28 02:31:10;;;;;;;8.55;6.10;;;5.90;99.90;;;;;;5112957;28;20040;-77
2022/03/28 02:33:36;;;;;;;8.25;5.75;;;5.90;99.90;;;;;;5113803;28;20110;-78
2022/03/28 02:36:02;;;;;;;9.77;6.18;;;5.90;99.90;;;;;;5095023;28;20050;-78
2022/03/28 02:38:28;;;;;;;7.85;6.35;;;5.90;99.90;;;;;;5094779;28;20047;-78
2022/03/28 02:40:53;;;;;;;8.00;6.22;;;5.90;99.90;;;;;;5094818;28;20409;-78
2022/03/28 02:43:21;;;;;;;6.75;5.43;;;5.80;99.90;;;;;;5094594;28;20043;-77
2022/03/28 02:45:47;;;;;;;8.45;5.25;;;5.80;99.90;;;;;;5094553;28;20052;-77
2022/03/28 02:48:12;;;;;;;6.32;5.72;;;5.90;99.90;;;;;;5113024;28;20074;-78
2022/03/28 02:50:38;;;;;;;5.93;5.22;;;5.90;99.90;;;;;;5113043;28;20047;-78
2022/03/28 02:53:04;;;;;;;8.35;5.00;;;5.80;99.90;;;;;;5094574;28;20031;-78
2022/03/28 02:55:29;;;;;;;9.02;5.43;;;5.80;99.90;;;;;;5095051;28;20163;-77
2022/03/28 02:57:55;;;;;;;7.28;5.90;;;5.80;99.90;;;;;;5094037;28;20050;-77
2022/03/28 03:00:21;;;;;;;7.60;5.90;;;5.80;99.90;;;;;;5095045;28;20047;-77
2022/03/28 03:02:46;;;;;;;6.78;6.07;;;5.80;99.90;;;;;;5113064;28;20126;-77
2022/03/28 03:05:13;;;;;;;10.02;5.15;;;5.70;99.90;;;;;;5094057;28;20048;-77
2022/03/28 03:07:39;;;;;;;8.70;5.50;;;5.70;99.90;;;;;;5113233;28;20055;-78
2022/03/28 03:10:05;;;;;;;6.60;5.60;;;5.70;99.90;;;;;;5112933;28;20035;-78
2022/03/28 03:12:32;;;;;;;9.57;5.78;;;5.70;99.90;;;;;;5094088;28;20047;-78
2022/03/28 03:14:58;;;;;;;9.40;6.28;;;5.70;99.90;;;;;;5112738;28;20051;-78
2022/03/28 03:17:23;;;;;;;9.85;5.90;;;5.70;99.90;;;;;;5112942;28;20050;-78
2022/03/28 03:19:49;;;;;;;9.70;6.00;;;5.70;99.90;;;;;;5093677;28;20519;-78
2022/03/28 03:22:15;;;;;;;13.43;7.00;;;5.70;99.90;;;;;;5094622;28;20075;-77
2022/03/28 03:24:44;;;;;;;8.57;6.55;;;5.70;99.90;;;;;;5094633;28;20044;-77
2022/03/28 03:27:10;;;;;;;13.43;6.88;;;5.70;99.90;;;;;;5111952;28;20048;-78
2022/03/28 03:29:37;;;;;;;6.57;5.72;;;5.70;99.90;;;;;;5112711;28;20572;-78
2022/03/28 03:32:04;;;;;;;8.43;6.80;;;5.70;99.90;;;;;;5112120;28;20119;-77
2022/03/28 03:34:30;;;;;;;8.50;5.85;;;5.70;99.90;;;;;;5094028;28;20126;-78
2022/03/28 03:36:56;;;;;;;14.73;7.18;;;5.70;99.90;;;;;;5094127;28;20040;-77
2022/03/28 03:39:25;;;;;;;13.77;7.60;;;5.70;99.90;;;;;;5094379;28;20087;-77
2022/03/28 03:41:54;;;;;;;11.18;6.47;;;5.70;99.90;;;;;;5093121;28;20085;-78
2022/03/28 03:44:20;;;;;;;9.70;7.78;;;5.70;99.90;;;;;;5112434;28;20486;-77
2022/03/28 03:46:46;;;;;;;11.55;7.70;;;5.70;99.90;;;;;;5094291;28;20477;-77
2022/03/28 03:49:12;;;;;;;11.77;7.40;;;5.60;99.90;;;;;;5111263;28;20134;-77
2022/03/28 03:51:38;;;;;;;12.13;8.13;;;5.60;99.90;;;;;;5112456;28;20608;-78
2022/03/28 03:54:04;;;;;;;11.40;8.13;;;5.60;99.90;;;;;;5092421;28;20050;-78
2022/03/28 03:56:29;;;;;;;12.57;8.15;;;5.60;99.90;;;;;;5094110;28;20193;-77
2022/03/28 03:58:56;;;;;;;9.65;7.80;;;5.70;99.90;;;;;;5112065;28;20119;-78
2022/03/28 04:01:22;;;;;;;13.55;8.70;;;5.70;99.90;;;;;;5093361;28;20105;-77
2022/03/28 04:03:48;;;;;;;12.68;8.10;;;5.70;99.90;;;;;;5094246;28;20047;-77
2022/03/28 04:06:14;;;;;;;14.43;8.95;;;4.50;99.90;;;;;;5090631;28;20054;-77
2022/03/28 04:08:39;;;;;;;12.02;8.07;;;5.60;99.90;;;;;;5075148;28;20394;-78
2022/03/28 04:11:06;;;;;;;15.98;9.13;;;5.70;99.90;;;;;;5090344;28;20410;-78
2022/03/28 04:13:33;;;;;;;11.50;7.93;;;5.70;99.90;;;;;;5105534;28;20155;-78
2022/03/28 04:15:59;;;;;;;9.90;6.93;;;5.70;99.90;;;;;;5076705;28;20056;-78
2022/03/28 04:18:25;;;;;;;9.05;6.43;;;5.60;99.90;;;;;;5099347;28;20411;-76
2022/03/28 04:20:52;;;;;;;11.18;6.28;;;5.60;99.90;;;;;;5075936;28;20061;-77
2022/03/28 04:23:18;;;;;;;10.73;6.13;;;5.60;99.90;;;;;;5091089;28;20063;-77
2022/03/28 04:25:44;;;;;;;9.95;5.60;;;5.50;99.90;;;;;;5105620;28;20044;-78
2022/03/28 04:28:10;;;;;;;7.75;4.82;;;5.50;99.90;;;;;;5093427;28;20051;-77
2022/03/28 04:30:35;;;;;;;6.38;4.25;;;5.50;99.90;;;;;;5111354;28;20055;-77
2022/03/28 04:33:02;;;;;;;5.88;4.43;;;5.50;99.90;;;;;;5093442;28;20047;-77
2022/03/28 04:35:28;;;;;;;5.50;3.60;;;5.40;99.90;;;;;;5112138;28;20043;-77
2022/03/28 04:37:54;;;;;;;9.90;3.83;;;5.40;99.90;;;;;;5092675;28;20059;-77
2022/03/28 04:40:20;;;;;;;4.25;2.85;;;5.40;99.90;;;;;;5093521;28;20044;-77
2022/03/28 04:42:46;;;;;;;4.28;3.20;;;5.40;99.90;;;;;;5093346;28;20401;-77
2022/03/28 04:45:12;;;;;;;3.67;2.90;;;5.30;99.90;;;;;;5111206;28;20074;-77
2022/03/28 04:47:39;;;;;;;2.40;2.10;;;5.30;99.90;;;;;;5103713;28;20044;-77
2022/03/28 04:50:05;;;;;;;3.03;2.65;;;5.20;99.90;;;;;;5078003;28;20051;-78
2022/03/28 04:52:31;;;;;;;2.88;2.55;;;5.20;99.90;;;;;;5089800;28;20047;-77
2022/03/28 04:54:56;;;;;;;3.05;2.22;;;5.20;99.90;;;;;;5101893;28;20039;-78
2022/03/28 04:57:25;;;;;;;3.42;2.63;;;5.10;99.90;;;;;;5099958;28;20042;-77
2022/03/28 05:00:00;;;;;;;2.53;1.73;;;5.10;99.90;;;;;;5084522;28;20394;-78
2022/03/28 05:02:25;;;;;;;2.55;2.25;;;5.10;99.90;;;;;;5077404;28;20054;-77
2022/03/28 05:04:51;;;;;;;2.22;2.03;;;5.10;99.90;;;;;;5095087;28;20052;-77
2022/03/28 05:07:27;;;;;;;3.45;2.40;;;5.10;99.90;;;;;;5089295;28;20443;-77
2022/03/28 05:09:53;;;;;;;3.03;2.10;;;5.10;99.90;;;;;;5114046;28;20519;-77
2022/03/28 05:12:23;;;;;;;4.25;2.20;;;5.00;99.90;;;;;;5114821;28;20092;-77
2022/03/28 05:14:52;;;;;;;2.65;1.88;;;5.10;99.90;;;;;;5096345;28;20044;-78
2022/03/28 05:17:28;;;;;;;2.40;1.63;;;5.00;99.90;;;;;;5096978;28;20043;-78
2022/03/28 05:19:54;;;;;;;2.45;2.05;;;5.00;99.90;;;;;;5114204;28;20039;-78
2022/03/28 05:22:20;;;;;;;2.55;1.95;;;5.10;99.90;;;;;;5090081;28;20040;-78
2022/03/28 05:24:50;;;;;;;3.75;2.17;;;5.10;99.90;;;;;;5085310;28;20375;-77
2022/03/28 05:27:16;;;;;;;2.95;2.53;;;5.10;99.90;;;;;;5115048;28;20075;-78
2022/03/28 05:29:43;;;;;;;3.10;2.45;;;5.10;99.90;;;;;;5096710;28;20043;-78
2022/03/28 05:32:09;;;;;;;2.80;2.40;;;5.10;99.90;;;;;;5106301;28;20451;-77
2022/03/28 05:34:35;;;;;;;4.50;2.80;;;5.10;99.90;;;;;;5097128;28;20036;-77
2022/03/28 05:37:04;;;;;;;2.92;2.63;;;5.10;99.90;;;;;;5093160;28;20070;-77
2022/03/28 05:39:32;;;;;;;5.43;3.78;;;5.10;99.90;;;;;;5095700;28;20039;-78
2022/03/28 05:41:58;;;;;;;4.50;3.25;;;5.10;99.90;;;;;;5076030;28;20040;-77
2022/03/28 05:44:24;;;;;;;3.88;3.30;;;5.10;99.90;;;;;;5103237;28;20468;-77
2022/03/28 05:46:50;;;;;;;5.45;3.35;;;5.10;99.90;;;;;;5113729;28;20146;-78
2022/03/28 05:49:16;;;;;;;6.82;3.60;;;5.10;99.90;;;;;;5092920;28;20109;-78
2022/03/28 05:51:42;;;;;;;6.85;5.18;;;5.10;99.90;;;;;;5090947;28;20059;-77
2022/03/28 05:54:10;;;;;;;6.28;4.65;;;5.20;99.90;;;;;;5076568;28;20402;-77
2022/03/28 05:56:35;;;;;;;8.35;4.85;;;5.10;99.90;;;;;;5082301;28;20554;-77
2022/03/28 05:59:02;;;;;;;10.00;5.68;;;5.10;99.90;;;;;;5087178;28;20044;-77
2022/03/28 06:01:29;;;;;;;7.72;5.60;;;5.10;99.90;;;;;;5092277;28;20062;-78
2022/03/28 06:03:54;;;;;;;7.03;5.32;;;5.10;99.90;;;;;;5082648;28;20040;-77
2022/03/28 06:06:20;;;;;;;11.73;7.10;;;5.10;99.90;;;;;;5083515;28;20401;-77
2022/03/28 06:08:46;;;;;;;8.43;6.80;;;5.10;99.90;;;;;;5085673;28;20055;-77
2022/03/28 06:11:12;;;;;;;7.85;6.38;;;5.10;99.90;;;;;;5078795;28;20410;-77
2022/03/28 06:13:37;;;;;;;10.40;7.22;;;5.10;99.90;;;;;;5083303;28;20127;-77
2022/03/28 06:16:04;;;;;;;8.40;6.55;;;5.10;99.90;;;;;;5081583;28;20032;-78
2022/03/28 06:18:30;;;;;;;10.23;6.82;;;5.20;99.90;;;;;;5080444;28;20078;-77
2022/03/28 06:20:55;;;;;;;9.05;6.70;;;5.20;99.90;;;;;;5088008;28;20048;-78
2022/03/28 06:23:21;;;;;;;8.23;5.72;;;5.20;99.90;;;;;;5088725;28;20048;-77
2022/03/28 06:25:47;;;;;;;7.43;6.15;;;5.20;99.90;;;;;;5081111;28;20056;-77
2022/03/28 06:28:13;;;;;;;6.13;5.50;;;5.30;99.90;;;;;;5079522;28;20032;-76
2022/03/28 06:30:39;;;;;;;6.53;5.25;;;5.30;99.90;;;;;;5092230;28;20549;-77
2022/03/28 06:33:05;;;;;;;7.60;5.38;;;5.30;99.90;;;;;;5088445;28;20040;-77
2022/03/28 06:35:30;;;;;;;7.20;4.45;;;5.40;99.90;;;;;;5082233;28;20052;-77
2022/03/28 06:37:56;;;;;;;6.95;5.88;;;5.40;99.90;;;;;;5074289;28;20048;-77
2022/03/28 06:40:22;;;;;;;6.53;5.35;;;5.40;99.90;;;;;;5089206;28;20557;-77
2022/03/28 06:42:47;;;;;;;7.32;6.38;;;5.40;99.90;;;;;;5076140;28;20048;-77
2022/03/28 06:45:13;;;;;;;6.78;5.88;;;5.40;99.90;;;;;;5085141;28;20040;-78
2022/03/28 06:47:39;;;;;;;9.27;6.68;;;5.50;99.90;;;;;;5091893;28;20050;-77
2022/03/28 06:50:07;;;;;;;10.10;5.63;;;5.50;99.90;;;;;;5105476;28;20836;-78
2022/03/28 06:52:34;;;;;;;8.05;5.85;;;5.50;99.90;;;;;;5074808;28;20055;-77
2022/03/28 06:55:00;;;;;;;8.50;6.15;;;5.50;99.90;;;;;;5096842;28;20040;-78
2022/03/28 06:57:26;;;;;;;7.82;6.20;;;5.60;99.90;;;;;;5072942;28;20050;-77
2022/03/28 06:59:53;;;;;;;7.47;6.20;;;5.60;99.90;;;;;;5076047;28;20044;-77
2022/03/28 07:02:22;;;;;;;6.60;6.00;;;5.70;99.90;;;;;;5104852;28;20044;-78
2022/03/28 07:04:47;;;;;;;9.20;6.97;;;5.60;99.90;;;;;;5107978;28;20100;-76
2022/03/28 07:07:13;;;;;;;6.40;5.80;;;5.70;99.90;;;;;;5076878;28;20036;-74
2022/03/28 07:09:38;;;;;;;7.75;6.03;;;5.70;99.90;;;;;;5078858;28;20121;-77
2022/03/28 07:12:05;;;;;;;6.30;5.47;;;5.70;99.90;;;;;;5084933;28;20036;-77
2022/03/28 07:14:32;;;;;;;7.10;4.50;;;5.80;99.90;;;;;;5104050;28;20535;-77
2022/03/28 07:16:58;;;;;;;9.13;6.03;;;5.80;99.90;;;;;;5077179;28;20494;-77
2022/03/28 07:19:24;;;;;;;7.75;5.55;;;5.80;99.90;;;;;;5092273;28;20047;-78
2022/03/28 07:21:49;;;;;;;7.88;6.15;;;5.90;99.90;;;;;;5112587;28;20043;-77
2022/03/28 07:24:17;;;;;;;6.63;6.03;;;5.90;99.90;;;;;;5103643;28;20457;-78
2022/03/28 07:26:48;;;;;;;7.55;5.80;;;6.00;99.90;;;;;;5102462;27;20112;-77
2022/03/28 07:29:15;;;;;;;7.28;6.57;;;4.50;99.90;;;;;;5078251;28;20043;-77
2022/03/28 07:31:44;;;;;;;6.15;5.45;;;6.00;99.90;;;;;;5096808;28;20048;-77
2022/03/28 07:36:54;;;;;;;6.68;5.93;;;6.10;99.90;;;;;;5093687;28;20044;-77
2022/03/28 07:39:20;;;;;;;6.80;5.43;;;6.00;99.90;;;;;;5105978;28;20088;-77
2022/03/28 07:41:47;;;;;;;10.50;6.72;;;6.10;99.90;;;;;;5075506;28;20044;-77
2022/03/28 07:44:13;;;;;;;8.70;6.10;;;6.10;99.90;;;;;;5108293;28;20079;-78
2022/03/28 07:46:39;;;;;;;8.48;6.63;;;6.20;99.90;;;;;;5083542;28;20094;-73
2022/03/28 07:49:04;;;;;;;6.72;6.10;;;6.20;99.90;;;;;;5102737;28;20059;-75
2022/03/28 07:51:30;;;;;;;12.18;6.78;;;6.20;99.90;;;;;;5095168;28;20040;-77
2022/03/28 07:53:55;;;;;;;6.65;5.75;;;6.30;99.90;;;;;;5109894;28;20048;-77
2022/03/28 07:56:25;;;;;;;8.30;6.47;;;6.30;99.90;;;;;;5074767;28;20474;-77
2022/03/28 07:58:50;;;;;;;7.32;5.47;;;6.30;99.90;;;;;;5092526;28;20123;-78
2022/03/28 08:01:16;;;;;;;7.50;5.75;;;6.30;99.90;;;;;;5082362;28;20459;-78
2022/03/28 08:03:42;;;;;;;7.95;7.15;;;6.40;99.90;;;;;;5094063;28;20042;-78
2022/03/28 08:06:08;;;;;;;8.70;7.45;;;6.40;99.90;;;;;;5094740;28;20039;-71
2022/03/28 08:08:35;;;;;;;6.63;5.95;;;6.40;99.90;;;;;;5113448;27;20032;-74
2022/03/28 08:11:01;;;;;;;6.45;5.85;;;6.40;99.90;;;;;;5097817;28;20044;-73
2022/03/28 08:13:26;;;;;;;8.80;6.13;;;6.40;99.90;;;;;;5107996;28;20046;-83
2022/03/28 08:15:52;;;;;;;9.25;5.88;;;6.50;99.90;;;;;;5084433;28;20478;-81
2022/03/28 08:18:18;;;;;;;8.15;5.50;;;6.60;99.90;;;;;;5090174;28;20074;-83
2022/03/28 08:20:44;;;;;;;7.47;6.05;;;6.60;99.90;;;;;;5089113;28;20170;-78
2022/03/28 08:23:10;;;;;;;11.27;7.00;;;6.60;99.90;;;;;;5081467;28;20558;-82
2022/03/28 08:25:36;;;;;;;8.35;6.75;;;6.70;99.90;;;;;;5091979;28;20093;-82
2022/03/28 08:28:02;;;;;;;8.50;6.05;;;6.70;99.90;;;;;;5080045;28;20055;-81
2022/03/28 08:30:29;;;;;;;12.05;7.15;;;6.70;99.90;;;;;;5077847;28;20040;-81
2022/03/28 08:32:55;;;;;;;7.88;7.15;;;6.70;99.90;;;;;;5104114;28;20042;-82
2022/03/28 08:35:22;;;;;;;8.68;7.05;;;6.80;99.90;;;;;;5090648;28;20051;-78
2022/03/28 08:37:48;;;;;;;10.77;7.00;;;6.80;99.90;;;;;;5113061;28;20047;-82
2022/03/28 08:40:17;;;;;;;9.05;6.38;;;6.80;99.90;;;;;;5111827;28;20082;-82
2022/03/28 08:42:43;;;;;;;10.10;7.05;;;6.80;99.90;;;;;;5097241;28;20056;-83
2022/03/28 08:45:11;;;;;;;11.82;6.85;;;6.70;99.90;;;;;;5098984;28;20040;-82
2022/03/28 08:47:43;;;;;;;7.95;7.18;;;6.80;99.90;;;;;;5100912;28;20482;-81
2022/03/28 08:50:12;;;;;;;10.90;7.80;;;6.80;99.90;;;;;;5097170;28;20541;-80
2022/03/28 08:52:42;;;;;;;8.48;7.05;;;6.90;99.90;;;;;;5092026;28;20152;-80
2022/03/28 08:55:09;;;;;;;10.68;7.93;;;6.90;99.90;;;;;;5120084;28;20055;-77
2022/03/28 08:57:35;;;;;;;11.98;8.45;;;7.00;99.90;;;;;;5096738;28;20043;-80
2022/03/28 09:00:04;;;;;;;15.73;8.07;;;7.10;99.90;;;;;;5097707;28;20397;-80
2022/03/28 09:02:32;;;;;;;10.80;8.73;;;5.80;99.90;;;;;;5098283;28;20120;-80
2022/03/28 09:04:59;;;;;;;13.05;8.90;;;7.30;99.90;;;;;;5092687;28;20043;-79
2022/03/28 09:07:26;;;;;;;9.25;8.32;;;7.30;99.90;;;;;;5085400;28;20046;-77
2022/03/28 09:10:11;;;;;;;9.20;7.63;;;7.30;99.90;;;;;;5116244;28;20042;-76
2022/03/28 09:12:41;;;;;;;12.07;8.80;;;7.30;99.90;;;;;;5092550;28;20565;-83
2022/03/28 09:15:09;;;;;;;12.05;9.55;;;7.30;99.90;;;;;;5081084;28;20043;-81
2022/03/28 09:17:39;;;;;;;10.48;8.98;;;7.40;99.90;;;;;;5094952;28;20028;-82
2022/03/28 09:20:05;;;;;;;11.00;9.60;;;7.40;99.90;;;;;;5095471;28;20040;-77
2022/03/28 09:22:33;;;;;;;13.35;9.35;;;7.40;99.90;;;;;;5106503;28;20386;-77
2022/03/28 09:25:10;;;;;;;10.68;9.63;;;7.30;99.90;;;;;;5096462;28;20079;-76
2022/03/28 09:27:39;;;;;;;12.18;10.50;;;7.30;99.90;;;;;;5097754;28;20088;-79
2022/03/28 09:30:16;;;;;;;13.20;10.30;;;7.20;99.90;;;;;;5097357;28;20040;-76
2022/03/28 09:32:52;;;;;;;16.40;9.55;;;7.20;99.90;;;;;;5115390;28;20046;-77
2022/03/28 09:35:22;;;;;;;14.63;11.00;;;7.20;99.90;;;;;;5109322;28;20486;-77
2022/03/28 09:37:51;;;;;;;13.32;11.55;;;7.30;99.90;;;;;;5097717;28;20552;-80
2022/03/28 09:40:51;;;;;;;19.35;10.80;;;7.30;99.90;;;;;;5074847;28;20059;-78
2022/03/28 09:43:29;;;;;;;12.15;10.48;;;7.40;99.90;;;;;;5081592;28;20094;-80
2022/03/28 09:45:57;;;;;;;15.05;11.32;;;7.40;99.90;;;;;;5096438;28;20055;-80
2022/03/28 09:48:25;;;;;;;15.00;11.32;;;7.40;99.90;;;;;;5115371;28;20138;-80
2022/03/28 09:51:04;;;;;;;15.70;11.38;;;7.50;99.90;;;;;;5094091;28;20054;-80
2022/03/28 09:53:32;;;;;;;13.70;10.38;;;7.50;99.90;;;;;;5085978;28;20048;-80
2022/03/28 09:55:59;;;;;;;13.18;10.32;;;9.30;99.90;;;;;;5087242;28;20429;-80
2022/03/28 09:58:46;;;;;;;14.88;10.90;;;7.50;99.90;;;;;;5108687;28;20451;-80
2022/03/28 10:01:12;;;;;;;13.25;11.43;;;7.50;99.90;;;;;;5089728;28;20045;-79
2022/03/28 10:03:37;;;;;;;12.30;10.77;;;7.60;99.90;;;;;;5093534;28;20055;-80
2022/03/28 10:06:05;;;;;;;13.55;10.85;;;8.10;99.90;;;;;;5098356;28;20044;-80
2022/03/28 10:08:32;;;;;;;11.73;10.55;;;7.70;99.90;;;;;;5106731;28;20051;-79
2022/03/28 10:11:02;;;;;;;16.05;13.07;;;7.80;99.90;;;;;;5088514;28;20074;-79
2022/03/28 10:13:30;;;;;;;17.90;13.00;;;7.90;99.90;;;;;;5074746;28;20126;-80
2022/03/28 10:15:57;;;;;;;13.65;11.15;;;7.90;99.90;;;;;;5093927;28;20093;-80
2022/03/28 10:18:22;;;;;;;16.90;11.43;;;7.90;99.90;;;;;;5108072;27;20115;-78
2022/03/28 10:20:54;;;;;;;13.32;11.27;;;7.90;99.90;;;;;;5098264;28;20127;-78
2022/03/28 10:23:22;;;;;;;13.07;11.63;;;7.90;99.90;;;;;;5078113;28;20524;-78
2022/03/28 10:25:51;;;;;;;15.23;11.65;;;7.90;99.90;;;;;;5114896;28;20231;-73
2022/03/28 10:28:20;;;;;;;16.23;11.80;;;8.00;99.90;;;;;;5114022;28;20075;-73
2022/03/28 10:30:46;;;;;;;18.13;12.00;;;8.10;99.90;;;;;;5094434;28;20036;-78
2022/03/28 10:33:22;;;;;;;12.73;10.57;;;8.20;99.90;;;;;;5096353;28;20047;-78
2022/03/28 10:36:00;;;;;;;15.07;11.95;;;8.20;99.90;;;;;;5096995;28;20109;-78
2022/03/28 10:38:26;;;;;;;16.63;12.15;;;8.20;99.90;;;;;;5094270;28;20483;-78
2022/03/28 10:41:05;;;;;;;13.60;11.68;;;8.20;99.90;;;;;;5105414;28;20031;-78
2022/03/28 10:43:33;;;;;;;13.80;11.13;;;8.30;99.90;;;;;;5098845;28;20440;-77
2022/03/28 10:46:10;;;;;;;19.58;10.80;;;8.40;99.90;;;;;;5075242;28;20044;-78
2022/03/28 10:48:58;;;;;;;14.07;10.77;;;8.40;99.90;;;;;;5075608;28;20055;-79
2022/03/28 10:51:29;;;;;;;14.07;10.63;;;8.40;99.90;;;;;;5081450;28;20065;-80
2022/03/28 10:53:58;;;;;;;20.58;12.15;;;8.50;99.90;;;;;;5092469;28;20052;-80
2022/03/28 10:56:34;;;;;;;14.52;10.85;;;8.50;99.90;;;;;;5074388;28;20066;-78
2022/03/28 10:59:10;;;;;;;14.25;10.48;;;8.50;99.90;;;;;;5075797;28;20428;-79
2022/03/28 11:01:37;;;;;;;12.27;10.93;;;8.50;99.90;;;;;;5075609;28;20132;-79
2022/03/28 11:04:07;;;;;;;14.30;11.40;;;8.50;99.90;;;;;;5092193;28;20048;-78
2022/03/28 11:07:05;;;;;;;12.77;11.00;;;8.50;99.90;;;;;;5095754;28;20055;-77
2022/03/28 11:09:43;;;;;;;12.88;10.38;;;8.60;99.90;;;;;;5100922;28;20043;-80
2022/03/28 11:12:34;;;;;;;14.40;11.48;;;8.60;99.90;;;;;;5099738;28;20131;-76
2022/03/28 11:15:12;;;;;;;13.45;12.00;;;8.60;99.90;;;;;;5114213;27;20052;-75
2022/03/28 11:17:51;;;;;;;14.55;11.45;;;8.70;99.90;;;;;;5105821;27;20076;-75
2022/03/28 11:20:22;;;;;;;16.60;11.02;;;8.70;99.90;;;;;;5086246;28;20055;-76
2022/03/28 11:23:06;;;;;;;14.32;11.60;;;8.70;99.90;;;;;;5093907;28;20043;-75
2022/03/28 11:25:41;;;;;;;16.20;11.10;;;8.70;99.90;;;;;;5082531;28;20363;-75
2022/03/28 11:28:28;;;;;;;15.40;11.80;;;8.80;99.90;;;;;;5074602;28;20380;-76
2022/03/28 11:31:11;;;;;;;19.15;11.20;;;8.90;99.90;;;;;;5092948;28;20048;-76
2022/03/28 11:33:43;;;;;;;16.48;12.38;;;9.00;99.90;;;;;;5109859;28;20059;-75
2022/03/28 11:36:20;;;;;;;17.30;11.30;;;9.20;99.90;;;;;;5095010;28;20128;-77
2022/03/28 11:38:55;;;;;;;14.50;12.52;;;9.30;99.90;;;;;;5094709;28;20051;-76
2022/03/28 11:41:25;;;;;;;13.68;11.02;;;9.40;99.90;;;;;;5078780;28;20052;-74
2022/03/28 11:43:52;;;;;;;15.43;12.30;;;9.40;99.90;;;;;;5073546;28;20036;-76
2022/03/28 11:46:26;;;;;;;16.58;12.20;;;9.30;99.90;;;;;;5074131;28;20036;-75
2022/03/28 11:49:04;;;;;;;13.70;10.02;;;9.30;99.90;;;;;;5092681;28;20063;-74
2022/03/28 11:51:32;;;;;;;12.38;10.95;;;9.30;99.90;;;;;;5093175;28;20054;-74
2022/03/28 11:54:06;;;;;;;13.68;11.70;;;9.30;99.90;;;;;;5091879;28;20036;-75
2022/03/28 11:58:14;;;;;;;15.57;11.48;;;9.60;99.90;;;;;;5098782;28;20478;-74
2022/03/28 11:59:21;;;;;;;13.98;11.05;;;9.40;99.90;;;;;;5109213;27;20044;-73
2022/03/28 12:01:49;;;;;;;15.88;12.18;;;9.40;99.90;;;;;;5107062;27;20051;-73
2022/03/28 12:04:18;;;;;;;16.88;12.15;;;9.50;99.90;;;;;;5088784;28;20043;-72
2022/03/28 12:06:44;;;;;;;13.60;12.13;;;9.50;99.90;;;;;;5100564;28;20044;-72
2022/03/28 12:09:15;;;;;;;11.45;10.23;;;9.60;99.90;;;;;;5103452;28;20054;-73
2022/03/28 12:11:48;;;;;;;16.53;11.13;;;9.60;99.90;;;;;;5087352;28;20546;-73
2022/03/28 12:14:14;;;;;;;18.05;11.82;;;9.70;99.90;;;;;;5082622;28;20046;-72
2022/03/28 12:16:52;;;;;;;15.35;12.20;;;9.70;99.90;;;;;;5091693;28;20051;-71
2022/03/28 12:19:20;;;;;;;13.07;11.18;;;9.70;99.90;;;;;;5073636;28;20582;-72
2022/03/28 12:21:47;;;;;;;12.07;10.82;;;9.80;99.90;;;;;;5091558;28;20425;-72
2022/03/28 12:24:12;;;;;;;12.95;11.15;;;9.80;99.90;;;;;;5073583;28;20081;-73
2022/03/28 12:26:49;;;;;;;13.32;11.48;;;9.80;99.90;;;;;;5092266;28;20551;-72
2022/03/28 12:29:16;;;;;;;14.48;10.70;;;9.90;99.90;;;;;;5090882;28;20048;-73
2022/03/28 12:31:47;;;;;;;16.35;12.10;;;10.00;99.90;;;;;;5091427;28;20390;-76
2022/03/28 12:34:14;;;;;;;13.70;11.50;;;10.10;99.90;;;;;;5073559;28;20052;-75
2022/03/28 12:36:40;;;;;;;12.77;11.35;;;10.10;99.90;;;;;;5095243;28;20123;-76
2022/03/28 12:39:09;;;;;;;12.88;11.00;;;10.10;99.90;;;;;;5094261;28;20090;-76
2022/03/28 12:41:53;;;;;;;15.05;11.20;;;10.20;99.90;;;;;;5085847;28;20374;-75
2022/03/28 12:44:23;;;;;;;12.60;11.30;;;10.10;99.90;;;;;;5080408;28;20376;-76
2022/03/28 12:46:49;;;;;;;15.65;11.20;;;10.30;99.90;;;;;;5096081;28;20474;-75
2022/03/28 12:49:18;;;;;;;13.57;11.65;;;10.30;99.90;;;;;;5080423;28;20087;-75
2022/03/28 12:51:45;;;;;;;13.35;11.25;;;10.20;99.90;;;;;;5077203;28;20040;-76
2022/03/28 12:54:14;;;;;;;16.55;11.85;;;10.30;99.90;;;;;;5102281;28;20040;-79
2022/03/28 12:56:56;;;;;;;14.68;11.88;;;10.30;99.90;;;;;;5105890;28;20051;-77
2022/03/28 12:59:28;;;;;;;13.20;11.35;;;10.40;99.90;;;;;;5112443;28;20120;-77